<?xml version="1.0" encoding="UTF-8" standalone="no" ?>
<gpx xmlns="http://www.topografix.com/GPX/1/1" xmlns:xsi="http://www.w3.org/2001/XMLSchema-instance" xsi:schemaLocation="http://www.topografix.com/GPX/1/1 http://www.topografix.com/GPX/1/1/gpx.xsd" version="1.1" creator="VisuGPX - https://www.visugpx.com">
  <metadata>
    <name>Ribou-LeVerdon</name>
  </metadata>
  <trk>
    <name><![CDATA[14246228-Ribouclette 6,5 km]]></name>
    <extensions>
      <line xmlns="http://www.topografix.com/GPX/gpx_style/0/2">
        <color>0000FF</color>
        <width>4</width>
      </line>
    </extensions>
    <trkseg>
      <trkpt lat="47.03112" lon="-0.83016">
        <ele>89</ele>
        <time>2022-03-08T12:17:44Z</time>
      </trkpt>
      <trkpt lat="47.03095" lon="-0.83016">
        <ele>90</ele>
        <time>2022-03-08T12:17:21Z</time>
      </trkpt>
      <trkpt lat="47.03007" lon="-0.83038">
        <ele>93</ele>
        <time>2022-03-08T12:15:22Z</time>
      </trkpt>
      <trkpt lat="47.02958" lon="-0.83056">
        <ele>94</ele>
        <time>2022-03-08T12:14:15Z</time>
      </trkpt>
      <trkpt lat="47.02928" lon="-0.82963">
        <ele>92</ele>
        <time>2022-03-08T12:12:41Z</time>
      </trkpt>
      <trkpt lat="47.02885" lon="-0.82839">
        <ele>94</ele>
        <time>2022-03-08T12:10:34Z</time>
      </trkpt>
      <trkpt lat="47.02876" lon="-0.82807">
        <ele>94</ele>
        <time>2022-03-08T12:10:03Z</time>
      </trkpt>
      <trkpt lat="47.02856" lon="-0.82684">
        <ele>94</ele>
        <time>2022-03-08T12:08:08Z</time>
      </trkpt>
      <trkpt lat="47.02841" lon="-0.82538">
        <ele>93</ele>
        <time>2022-03-08T12:05:54Z</time>
      </trkpt>
      <trkpt lat="47.02835" lon="-0.82512">
        <ele>93</ele>
        <time>2022-03-08T12:05:29Z</time>
      </trkpt>
      <trkpt lat="47.02817" lon="-0.82476">
        <ele>93</ele>
        <time>2022-03-08T12:04:48Z</time>
      </trkpt>
      <trkpt lat="47.0281" lon="-0.82455">
        <ele>93</ele>
        <time>2022-03-08T12:04:27Z</time>
      </trkpt>
      <trkpt lat="47.02798" lon="-0.82442">
        <ele>93</ele>
        <time>2022-03-08T12:04:07Z</time>
      </trkpt>
      <trkpt lat="47.02791" lon="-0.82427">
        <ele>93</ele>
        <time>2022-03-08T12:03:50Z</time>
      </trkpt>
      <trkpt lat="47.028" lon="-0.82399">
        <ele>91</ele>
        <time>2022-03-08T12:03:22Z</time>
      </trkpt>
      <trkpt lat="47.02809" lon="-0.82387">
        <ele>90</ele>
        <time>2022-03-08T12:03:06Z</time>
      </trkpt>
      <trkpt lat="47.02812" lon="-0.82368">
        <ele>88</ele>
        <time>2022-03-08T12:02:48Z</time>
      </trkpt>
      <trkpt lat="47.02806" lon="-0.82354">
        <ele>87</ele>
        <time>2022-03-08T12:02:33Z</time>
      </trkpt>
      <trkpt lat="47.02789" lon="-0.82342">
        <ele>87</ele>
        <time>2022-03-08T12:02:08Z</time>
      </trkpt>
      <trkpt lat="47.02758" lon="-0.82316">
        <ele>86</ele>
        <time>2022-03-08T12:01:20Z</time>
      </trkpt>
      <trkpt lat="47.02726" lon="-0.82285">
        <ele>87</ele>
        <time>2022-03-08T12:00:29Z</time>
      </trkpt>
      <trkpt lat="47.02676" lon="-0.82243">
        <ele>90</ele>
        <time>2022-03-08T11:59:12Z</time>
      </trkpt>
      <trkpt lat="47.02649" lon="-0.82229">
        <ele>90</ele>
        <time>2022-03-08T11:58:34Z</time>
      </trkpt>
      <trkpt lat="47.0261" lon="-0.82215">
        <ele>90</ele>
        <time>2022-03-08T11:57:40Z</time>
      </trkpt>
      <trkpt lat="47.0259" lon="-0.82214">
        <ele>90</ele>
        <time>2022-03-08T11:57:14Z</time>
      </trkpt>
      <trkpt lat="47.02528" lon="-0.8216">
        <ele>91</ele>
        <time>2022-03-08T11:55:37Z</time>
      </trkpt>
      <trkpt lat="47.02499" lon="-0.82133">
        <ele>91</ele>
        <time>2022-03-08T11:54:52Z</time>
      </trkpt>
      <trkpt lat="47.02486" lon="-0.82117">
        <ele>91</ele>
        <time>2022-03-08T11:54:29Z</time>
      </trkpt>
      <trkpt lat="47.02446" lon="-0.82107">
        <ele>91</ele>
        <time>2022-03-08T11:53:35Z</time>
      </trkpt>
      <trkpt lat="47.02418" lon="-0.8209">
        <ele>90</ele>
        <time>2022-03-08T11:52:54Z</time>
      </trkpt>
      <trkpt lat="47.02386" lon="-0.82066">
        <ele>89</ele>
        <time>2022-03-08T11:52:06Z</time>
      </trkpt>
      <trkpt lat="47.0237" lon="-0.82066">
        <ele>89</ele>
        <time>2022-03-08T11:51:45Z</time>
      </trkpt>
      <trkpt lat="47.0236" lon="-0.82081">
        <ele>89</ele>
        <time>2022-03-08T11:51:26Z</time>
      </trkpt>
      <trkpt lat="47.02336" lon="-0.82101">
        <ele>88</ele>
        <time>2022-03-08T11:50:49Z</time>
      </trkpt>
      <trkpt lat="47.02313" lon="-0.82125">
        <ele>89</ele>
        <time>2022-03-08T11:50:12Z</time>
      </trkpt>
      <trkpt lat="47.02303" lon="-0.82139">
        <ele>89</ele>
        <time>2022-03-08T11:49:53Z</time>
      </trkpt>
      <trkpt lat="47.02298" lon="-0.82155">
        <ele>89</ele>
        <time>2022-03-08T11:49:37Z</time>
      </trkpt>
      <trkpt lat="47.02272" lon="-0.82196">
        <ele>90</ele>
        <time>2022-03-08T11:48:46Z</time>
      </trkpt>
      <trkpt lat="47.02252" lon="-0.82209">
        <ele>90</ele>
        <time>2022-03-08T11:48:17Z</time>
      </trkpt>
      <trkpt lat="47.02243" lon="-0.82221">
        <ele>90</ele>
        <time>2022-03-08T11:48:01Z</time>
      </trkpt>
      <trkpt lat="47.02233" lon="-0.82223">
        <ele>91</ele>
        <time>2022-03-08T11:47:47Z</time>
      </trkpt>
      <trkpt lat="47.02217" lon="-0.82222">
        <ele>91</ele>
        <time>2022-03-08T11:47:26Z</time>
      </trkpt>
      <trkpt lat="47.02208" lon="-0.82219">
        <ele>91</ele>
        <time>2022-03-08T11:47:14Z</time>
      </trkpt>
      <trkpt lat="47.02204" lon="-0.82214">
        <ele>91</ele>
        <time>2022-03-08T11:47:07Z</time>
      </trkpt>
      <trkpt lat="47.02205" lon="-0.82201">
        <ele>91</ele>
        <time>2022-03-08T11:46:55Z</time>
      </trkpt>
      <trkpt lat="47.02211" lon="-0.82157">
        <ele>90</ele>
        <time>2022-03-08T11:46:14Z</time>
      </trkpt>
      <trkpt lat="47.02208" lon="-0.82143">
        <ele>90</ele>
        <time>2022-03-08T11:46:00Z</time>
      </trkpt>
      <trkpt lat="47.02204" lon="-0.82139">
        <ele>90</ele>
        <time>2022-03-08T11:45:54Z</time>
      </trkpt>
      <trkpt lat="47.022" lon="-0.82139">
        <ele>90</ele>
        <time>2022-03-08T11:45:49Z</time>
      </trkpt>
      <trkpt lat="47.02178" lon="-0.82138">
        <ele>91</ele>
        <time>2022-03-08T11:45:19Z</time>
      </trkpt>
      <trkpt lat="47.02177" lon="-0.82141">
        <ele>91</ele>
        <time>2022-03-08T11:45:16Z</time>
      </trkpt>
      <trkpt lat="47.02169" lon="-0.82139">
        <ele>91</ele>
        <time>2022-03-08T11:45:05Z</time>
      </trkpt>
      <trkpt lat="47.02159" lon="-0.82147">
        <ele>91</ele>
        <time>2022-03-08T11:44:50Z</time>
      </trkpt>
      <trkpt lat="47.02147" lon="-0.82144">
        <ele>92</ele>
        <time>2022-03-08T11:44:34Z</time>
      </trkpt>
      <trkpt lat="47.02127" lon="-0.82134">
        <ele>93</ele>
        <time>2022-03-08T11:44:06Z</time>
      </trkpt>
      <trkpt lat="47.02125" lon="-0.82153">
        <ele>93</ele>
        <time>2022-03-08T11:43:48Z</time>
      </trkpt>
      <trkpt lat="47.02121" lon="-0.82166">
        <ele>93</ele>
        <time>2022-03-08T11:43:35Z</time>
      </trkpt>
      <trkpt lat="47.02117" lon="-0.82177">
        <ele>94</ele>
        <time>2022-03-08T11:43:24Z</time>
      </trkpt>
      <trkpt lat="47.02109" lon="-0.82186">
        <ele>95</ele>
        <time>2022-03-08T11:43:11Z</time>
      </trkpt>
      <trkpt lat="47.021" lon="-0.82187">
        <ele>95</ele>
        <time>2022-03-08T11:42:58Z</time>
      </trkpt>
      <trkpt lat="47.02078" lon="-0.82184">
        <ele>97</ele>
        <time>2022-03-08T11:42:29Z</time>
      </trkpt>
      <trkpt lat="47.02073" lon="-0.82189">
        <ele>97</ele>
        <time>2022-03-08T11:42:21Z</time>
      </trkpt>
      <trkpt lat="47.02072" lon="-0.82196">
        <ele>97</ele>
        <time>2022-03-08T11:42:14Z</time>
      </trkpt>
      <trkpt lat="47.02073" lon="-0.82205">
        <ele>97</ele>
        <time>2022-03-08T11:42:06Z</time>
      </trkpt>
      <trkpt lat="47.02074" lon="-0.82245">
        <ele>98</ele>
        <time>2022-03-08T11:41:30Z</time>
      </trkpt>
      <trkpt lat="47.02078" lon="-0.82272">
        <ele>98</ele>
        <time>2022-03-08T11:41:05Z</time>
      </trkpt>
      <trkpt lat="47.02091" lon="-0.82299">
        <ele>99</ele>
        <time>2022-03-08T11:40:34Z</time>
      </trkpt>
      <trkpt lat="47.02104" lon="-0.82335">
        <ele>100</ele>
        <time>2022-03-08T11:39:57Z</time>
      </trkpt>
      <trkpt lat="47.02104" lon="-0.8235">
        <ele>100</ele>
        <time>2022-03-08T11:39:44Z</time>
      </trkpt>
      <trkpt lat="47.02107" lon="-0.82367">
        <ele>101</ele>
        <time>2022-03-08T11:39:28Z</time>
      </trkpt>
      <trkpt lat="47.02115" lon="-0.82383">
        <ele>101</ele>
        <time>2022-03-08T11:39:10Z</time>
      </trkpt>
      <trkpt lat="47.02122" lon="-0.82402">
        <ele>102</ele>
        <time>2022-03-08T11:38:50Z</time>
      </trkpt>
      <trkpt lat="47.02133" lon="-0.82447">
        <ele>103</ele>
        <time>2022-03-08T11:38:07Z</time>
      </trkpt>
      <trkpt lat="47.02139" lon="-0.82536">
        <ele>103</ele>
        <time>2022-03-08T11:36:45Z</time>
      </trkpt>
      <trkpt lat="47.02145" lon="-0.82582">
        <ele>104</ele>
        <time>2022-03-08T11:36:03Z</time>
      </trkpt>
      <trkpt lat="47.02148" lon="-0.8261">
        <ele>105</ele>
        <time>2022-03-08T11:35:37Z</time>
      </trkpt>
      <trkpt lat="47.02147" lon="-0.82652">
        <ele>106</ele>
        <time>2022-03-08T11:34:59Z</time>
      </trkpt>
      <trkpt lat="47.02143" lon="-0.82669">
        <ele>107</ele>
        <time>2022-03-08T11:34:42Z</time>
      </trkpt>
      <trkpt lat="47.02147" lon="-0.82676">
        <ele>107</ele>
        <time>2022-03-08T11:34:34Z</time>
      </trkpt>
      <trkpt lat="47.02138" lon="-0.8269">
        <ele>108</ele>
        <time>2022-03-08T11:34:16Z</time>
      </trkpt>
      <trkpt lat="47.02112" lon="-0.82717">
        <ele>109</ele>
        <time>2022-03-08T11:33:34Z</time>
      </trkpt>
      <trkpt lat="47.02085" lon="-0.82733">
        <ele>108</ele>
        <time>2022-03-08T11:32:55Z</time>
      </trkpt>
      <trkpt lat="47.02018" lon="-0.82765">
        <ele>107</ele>
        <time>2022-03-08T11:31:21Z</time>
      </trkpt>
      <trkpt lat="47.01984" lon="-0.82794">
        <ele>106</ele>
        <time>2022-03-08T11:30:29Z</time>
      </trkpt>
      <trkpt lat="47.01975" lon="-0.82805">
        <ele>106</ele>
        <time>2022-03-08T11:30:13Z</time>
      </trkpt>
      <trkpt lat="47.01964" lon="-0.82821">
        <ele>106</ele>
        <time>2022-03-08T11:29:52Z</time>
      </trkpt>
      <trkpt lat="47.01956" lon="-0.82843">
        <ele>107</ele>
        <time>2022-03-08T11:29:30Z</time>
      </trkpt>
      <trkpt lat="47.01924" lon="-0.82957">
        <ele>110</ele>
        <time>2022-03-08T11:27:37Z</time>
      </trkpt>
      <trkpt lat="47.01937" lon="-0.82976">
        <ele>111</ele>
        <time>2022-03-08T11:27:13Z</time>
      </trkpt>
      <trkpt lat="47.02004" lon="-0.83166">
        <ele>116</ele>
        <time>2022-03-08T11:23:58Z</time>
      </trkpt>
      <trkpt lat="47.02018" lon="-0.83215">
        <ele>117</ele>
        <time>2022-03-08T11:23:10Z</time>
      </trkpt>
      <trkpt lat="47.02027" lon="-0.83253">
        <ele>118</ele>
        <time>2022-03-08T11:22:33Z</time>
      </trkpt>
      <trkpt lat="47.02036" lon="-0.83321">
        <ele>117</ele>
        <time>2022-03-08T11:21:30Z</time>
      </trkpt>
      <trkpt lat="47.02039" lon="-0.83397">
        <ele>117</ele>
        <time>2022-03-08T11:20:21Z</time>
      </trkpt>
      <trkpt lat="47.02042" lon="-0.83427">
        <ele>116</ele>
        <time>2022-03-08T11:19:54Z</time>
      </trkpt>
      <trkpt lat="47.02046" lon="-0.83447">
        <ele>116</ele>
        <time>2022-03-08T11:19:35Z</time>
      </trkpt>
      <trkpt lat="47.02056" lon="-0.83477">
        <ele>115</ele>
        <time>2022-03-08T11:19:04Z</time>
      </trkpt>
      <trkpt lat="47.02067" lon="-0.83503">
        <ele>115</ele>
        <time>2022-03-08T11:18:36Z</time>
      </trkpt>
      <trkpt lat="47.02112" lon="-0.83572">
        <ele>114</ele>
        <time>2022-03-08T11:17:09Z</time>
      </trkpt>
      <trkpt lat="47.02125" lon="-0.83625">
        <ele>114</ele>
        <time>2022-03-08T11:16:18Z</time>
      </trkpt>
      <trkpt lat="47.02166" lon="-0.83744">
        <ele>115</ele>
        <time>2022-03-08T11:14:17Z</time>
      </trkpt>
      <trkpt lat="47.02183" lon="-0.83797">
        <ele>114</ele>
        <time>2022-03-08T11:13:24Z</time>
      </trkpt>
      <trkpt lat="47.02231" lon="-0.83913">
        <ele>115</ele>
        <time>2022-03-08T11:11:20Z</time>
      </trkpt>
      <trkpt lat="47.02244" lon="-0.8394">
        <ele>115</ele>
        <time>2022-03-08T11:10:50Z</time>
      </trkpt>
      <trkpt lat="47.0226" lon="-0.83969">
        <ele>115</ele>
        <time>2022-03-08T11:10:16Z</time>
      </trkpt>
      <trkpt lat="47.02274" lon="-0.83999">
        <ele>115</ele>
        <time>2022-03-08T11:09:43Z</time>
      </trkpt>
      <trkpt lat="47.02287" lon="-0.84037">
        <ele>116</ele>
        <time>2022-03-08T11:09:04Z</time>
      </trkpt>
      <trkpt lat="47.02297" lon="-0.84073">
        <ele>117</ele>
        <time>2022-03-08T11:08:29Z</time>
      </trkpt>
      <trkpt lat="47.02304" lon="-0.84122">
        <ele>117</ele>
        <time>2022-03-08T11:07:44Z</time>
      </trkpt>
      <trkpt lat="47.02306" lon="-0.84155">
        <ele>117</ele>
        <time>2022-03-08T11:07:13Z</time>
      </trkpt>
      <trkpt lat="47.02308" lon="-0.84203">
        <ele>116</ele>
        <time>2022-03-08T11:06:30Z</time>
      </trkpt>
      <trkpt lat="47.02303" lon="-0.84276">
        <ele>115</ele>
        <time>2022-03-08T11:05:23Z</time>
      </trkpt>
      <trkpt lat="47.02302" lon="-0.84307">
        <ele>115</ele>
        <time>2022-03-08T11:04:55Z</time>
      </trkpt>
      <trkpt lat="47.0231" lon="-0.84413">
        <ele>112</ele>
        <time>2022-03-08T11:03:18Z</time>
      </trkpt>
      <trkpt lat="47.02316" lon="-0.84573">
        <ele>107</ele>
        <time>2022-03-08T11:00:52Z</time>
      </trkpt>
      <trkpt lat="47.02319" lon="-0.84586">
        <ele>107</ele>
        <time>2022-03-08T11:00:39Z</time>
      </trkpt>
      <trkpt lat="47.02329" lon="-0.84587">
        <ele>106</ele>
        <time>2022-03-08T11:00:26Z</time>
      </trkpt>
      <trkpt lat="47.02375" lon="-0.84599">
        <ele>101</ele>
        <time>2022-03-08T10:59:24Z</time>
      </trkpt>
      <trkpt lat="47.02397" lon="-0.84601">
        <ele>99</ele>
        <time>2022-03-08T10:58:54Z</time>
      </trkpt>
      <trkpt lat="47.02402" lon="-0.84606">
        <ele>98</ele>
        <time>2022-03-08T10:58:46Z</time>
      </trkpt>
      <trkpt lat="47.02404" lon="-0.8458">
        <ele>99</ele>
        <time>2022-03-08T10:58:22Z</time>
      </trkpt>
      <trkpt lat="47.02421" lon="-0.84532">
        <ele>102</ele>
        <time>2022-03-08T10:57:33Z</time>
      </trkpt>
      <trkpt lat="47.02451" lon="-0.84467">
        <ele>104</ele>
        <time>2022-03-08T10:56:22Z</time>
      </trkpt>
      <trkpt lat="47.02499" lon="-0.84437">
        <ele>104</ele>
        <time>2022-03-08T10:55:12Z</time>
      </trkpt>
      <trkpt lat="47.02509" lon="-0.84433">
        <ele>103</ele>
        <time>2022-03-08T10:54:58Z</time>
      </trkpt>
      <trkpt lat="47.02543" lon="-0.8443">
        <ele>97</ele>
        <time>2022-03-08T10:54:13Z</time>
      </trkpt>
      <trkpt lat="47.02547" lon="-0.84434">
        <ele>96</ele>
        <time>2022-03-08T10:54:06Z</time>
      </trkpt>
      <trkpt lat="47.02555" lon="-0.84436">
        <ele>95</ele>
        <time>2022-03-08T10:53:56Z</time>
      </trkpt>
      <trkpt lat="47.02561" lon="-0.84433">
        <ele>94</ele>
        <time>2022-03-08T10:53:47Z</time>
      </trkpt>
      <trkpt lat="47.02588" lon="-0.84356">
        <ele>91</ele>
        <time>2022-03-08T10:52:28Z</time>
      </trkpt>
      <trkpt lat="47.02593" lon="-0.84349">
        <ele>91</ele>
        <time>2022-03-08T10:52:19Z</time>
      </trkpt>
      <trkpt lat="47.02598" lon="-0.84339">
        <ele>91</ele>
        <time>2022-03-08T10:52:08Z</time>
      </trkpt>
      <trkpt lat="47.02612" lon="-0.84317">
        <ele>92</ele>
        <time>2022-03-08T10:51:40Z</time>
      </trkpt>
      <trkpt lat="47.02635" lon="-0.8427">
        <ele>94</ele>
        <time>2022-03-08T10:50:48Z</time>
      </trkpt>
      <trkpt lat="47.02639" lon="-0.84269">
        <ele>94</ele>
        <time>2022-03-08T10:50:42Z</time>
      </trkpt>
      <trkpt lat="47.02659" lon="-0.84271">
        <ele>93</ele>
        <time>2022-03-08T10:50:16Z</time>
      </trkpt>
      <trkpt lat="47.02679" lon="-0.84269">
        <ele>92</ele>
        <time>2022-03-08T10:49:49Z</time>
      </trkpt>
      <trkpt lat="47.02697" lon="-0.84262">
        <ele>91</ele>
        <time>2022-03-08T10:49:24Z</time>
      </trkpt>
      <trkpt lat="47.02718" lon="-0.84265">
        <ele>90</ele>
        <time>2022-03-08T10:48:56Z</time>
      </trkpt>
      <trkpt lat="47.02747" lon="-0.84254">
        <ele>89</ele>
        <time>2022-03-08T10:48:16Z</time>
      </trkpt>
      <trkpt lat="47.02768" lon="-0.84249">
        <ele>88</ele>
        <time>2022-03-08T10:47:48Z</time>
      </trkpt>
      <trkpt lat="47.02777" lon="-0.84244">
        <ele>88</ele>
        <time>2022-03-08T10:47:35Z</time>
      </trkpt>
      <trkpt lat="47.02783" lon="-0.84242">
        <ele>88</ele>
        <time>2022-03-08T10:47:26Z</time>
      </trkpt>
      <trkpt lat="47.02798" lon="-0.84248">
        <ele>87</ele>
        <time>2022-03-08T10:47:06Z</time>
      </trkpt>
      <trkpt lat="47.02817" lon="-0.84241">
        <ele>86</ele>
        <time>2022-03-08T10:46:40Z</time>
      </trkpt>
      <trkpt lat="47.0283" lon="-0.84233">
        <ele>86</ele>
        <time>2022-03-08T10:46:21Z</time>
      </trkpt>
      <trkpt lat="47.02845" lon="-0.84216">
        <ele>87</ele>
        <time>2022-03-08T10:45:55Z</time>
      </trkpt>
      <trkpt lat="47.02875" lon="-0.84174">
        <ele>89</ele>
        <time>2022-03-08T10:45:00Z</time>
      </trkpt>
      <trkpt lat="47.02877" lon="-0.84166">
        <ele>89</ele>
        <time>2022-03-08T10:44:52Z</time>
      </trkpt>
      <trkpt lat="47.02883" lon="-0.84168">
        <ele>89</ele>
        <time>2022-03-08T10:44:44Z</time>
      </trkpt>
      <trkpt lat="47.02892" lon="-0.84167">
        <ele>89</ele>
        <time>2022-03-08T10:44:32Z</time>
      </trkpt>
      <trkpt lat="47.02941" lon="-0.84153">
        <ele>88</ele>
        <time>2022-03-08T10:43:26Z</time>
      </trkpt>
      <trkpt lat="47.02943" lon="-0.84153">
        <ele>88</ele>
        <time>2022-03-08T10:43:23Z</time>
      </trkpt>
      <trkpt lat="47.02965" lon="-0.84196">
        <ele>87</ele>
        <time>2022-03-08T10:42:34Z</time>
      </trkpt>
      <trkpt lat="47.02977" lon="-0.84208">
        <ele>87</ele>
        <time>2022-03-08T10:42:15Z</time>
      </trkpt>
      <trkpt lat="47.02989" lon="-0.84213">
        <ele>86</ele>
        <time>2022-03-08T10:41:58Z</time>
      </trkpt>
      <trkpt lat="47.03016" lon="-0.84215">
        <ele>86</ele>
        <time>2022-03-08T10:41:22Z</time>
      </trkpt>
      <trkpt lat="47.0306" lon="-0.84227">
        <ele>85</ele>
        <time>2022-03-08T10:40:22Z</time>
      </trkpt>
      <trkpt lat="47.03072" lon="-0.84227">
        <ele>85</ele>
        <time>2022-03-08T10:40:06Z</time>
      </trkpt>
      <trkpt lat="47.03079" lon="-0.84222">
        <ele>85</ele>
        <time>2022-03-08T10:39:56Z</time>
      </trkpt>
      <trkpt lat="47.0309" lon="-0.84211">
        <ele>85</ele>
        <time>2022-03-08T10:39:38Z</time>
      </trkpt>
      <trkpt lat="47.03104" lon="-0.8419">
        <ele>86</ele>
        <time>2022-03-08T10:39:11Z</time>
      </trkpt>
      <trkpt lat="47.03115" lon="-0.84173">
        <ele>86</ele>
        <time>2022-03-08T10:38:50Z</time>
      </trkpt>
      <trkpt lat="47.03121" lon="-0.84154">
        <ele>86</ele>
        <time>2022-03-08T10:38:31Z</time>
      </trkpt>
      <trkpt lat="47.03122" lon="-0.84138">
        <ele>86</ele>
        <time>2022-03-08T10:38:16Z</time>
      </trkpt>
      <trkpt lat="47.03119" lon="-0.84093">
        <ele>87</ele>
        <time>2022-03-08T10:37:35Z</time>
      </trkpt>
      <trkpt lat="47.03123" lon="-0.84057">
        <ele>88</ele>
        <time>2022-03-08T10:37:02Z</time>
      </trkpt>
      <trkpt lat="47.03131" lon="-0.84031">
        <ele>88</ele>
        <time>2022-03-08T10:36:36Z</time>
      </trkpt>
      <trkpt lat="47.03144" lon="-0.83993">
        <ele>87</ele>
        <time>2022-03-08T10:35:57Z</time>
      </trkpt>
      <trkpt lat="47.03173" lon="-0.83902">
        <ele>86</ele>
        <time>2022-03-08T10:34:26Z</time>
      </trkpt>
      <trkpt lat="47.03183" lon="-0.83878">
        <ele>86</ele>
        <time>2022-03-08T10:34:00Z</time>
      </trkpt>
      <trkpt lat="47.03195" lon="-0.83859">
        <ele>87</ele>
        <time>2022-03-08T10:33:37Z</time>
      </trkpt>
      <trkpt lat="47.03205" lon="-0.83837">
        <ele>87</ele>
        <time>2022-03-08T10:33:13Z</time>
      </trkpt>
      <trkpt lat="47.03211" lon="-0.83817">
        <ele>88</ele>
        <time>2022-03-08T10:32:53Z</time>
      </trkpt>
      <trkpt lat="47.03214" lon="-0.83805">
        <ele>88</ele>
        <time>2022-03-08T10:32:41Z</time>
      </trkpt>
      <trkpt lat="47.03213" lon="-0.838">
        <ele>88</ele>
        <time>2022-03-08T10:32:37Z</time>
      </trkpt>
      <trkpt lat="47.03202" lon="-0.83796">
        <ele>89</ele>
        <time>2022-03-08T10:32:21Z</time>
      </trkpt>
      <trkpt lat="47.032" lon="-0.83792">
        <ele>89</ele>
        <time>2022-03-08T10:32:17Z</time>
      </trkpt>
      <trkpt lat="47.03202" lon="-0.83788">
        <ele>89</ele>
        <time>2022-03-08T10:32:12Z</time>
      </trkpt>
      <trkpt lat="47.03235" lon="-0.83789">
        <ele>88</ele>
        <time>2022-03-08T10:31:28Z</time>
      </trkpt>
      <trkpt lat="47.03251" lon="-0.83781">
        <ele>88</ele>
        <time>2022-03-08T10:31:06Z</time>
      </trkpt>
      <trkpt lat="47.03259" lon="-0.83779">
        <ele>88</ele>
        <time>2022-03-08T10:30:55Z</time>
      </trkpt>
      <trkpt lat="47.03268" lon="-0.83779">
        <ele>87</ele>
        <time>2022-03-08T10:30:43Z</time>
      </trkpt>
      <trkpt lat="47.03287" lon="-0.83767">
        <ele>87</ele>
        <time>2022-03-08T10:30:15Z</time>
      </trkpt>
      <trkpt lat="47.03319" lon="-0.83756">
        <ele>86</ele>
        <time>2022-03-08T10:29:31Z</time>
      </trkpt>
      <trkpt lat="47.0335" lon="-0.83741">
        <ele>86</ele>
        <time>2022-03-08T10:28:48Z</time>
      </trkpt>
      <trkpt lat="47.03385" lon="-0.83731">
        <ele>87</ele>
        <time>2022-03-08T10:28:00Z</time>
      </trkpt>
      <trkpt lat="47.03409" lon="-0.83719">
        <ele>87</ele>
        <time>2022-03-08T10:27:27Z</time>
      </trkpt>
      <trkpt lat="47.03428" lon="-0.83716">
        <ele>87</ele>
        <time>2022-03-08T10:27:01Z</time>
      </trkpt>
      <trkpt lat="47.03443" lon="-0.83703">
        <ele>87</ele>
        <time>2022-03-08T10:26:38Z</time>
      </trkpt>
      <trkpt lat="47.03453" lon="-0.83678">
        <ele>87</ele>
        <time>2022-03-08T10:26:11Z</time>
      </trkpt>
      <trkpt lat="47.0346" lon="-0.83666">
        <ele>87</ele>
        <time>2022-03-08T10:25:57Z</time>
      </trkpt>
      <trkpt lat="47.03468" lon="-0.83663">
        <ele>87</ele>
        <time>2022-03-08T10:25:46Z</time>
      </trkpt>
      <trkpt lat="47.03492" lon="-0.8367">
        <ele>87</ele>
        <time>2022-03-08T10:25:13Z</time>
      </trkpt>
      <trkpt lat="47.03525" lon="-0.83652">
        <ele>86</ele>
        <time>2022-03-08T10:24:26Z</time>
      </trkpt>
      <trkpt lat="47.03529" lon="-0.83643">
        <ele>86</ele>
        <time>2022-03-08T10:24:17Z</time>
      </trkpt>
      <trkpt lat="47.03538" lon="-0.83586">
        <ele>86</ele>
        <time>2022-03-08T10:23:23Z</time>
      </trkpt>
      <trkpt lat="47.03545" lon="-0.83559">
        <ele>86</ele>
        <time>2022-03-08T10:22:57Z</time>
      </trkpt>
      <trkpt lat="47.03566" lon="-0.83545">
        <ele>86</ele>
        <time>2022-03-08T10:22:26Z</time>
      </trkpt>
      <trkpt lat="47.03582" lon="-0.83523">
        <ele>86</ele>
        <time>2022-03-08T10:21:57Z</time>
      </trkpt>
      <trkpt lat="47.03584" lon="-0.83515">
        <ele>86</ele>
        <time>2022-03-08T10:21:49Z</time>
      </trkpt>
      <trkpt lat="47.03583" lon="-0.83507">
        <ele>86</ele>
        <time>2022-03-08T10:21:42Z</time>
      </trkpt>
      <trkpt lat="47.03557" lon="-0.8346">
        <ele>86</ele>
        <time>2022-03-08T10:20:47Z</time>
      </trkpt>
      <trkpt lat="47.03537" lon="-0.83444">
        <ele>87</ele>
        <time>2022-03-08T10:20:16Z</time>
      </trkpt>
      <trkpt lat="47.03516" lon="-0.83416">
        <ele>87</ele>
        <time>2022-03-08T10:19:39Z</time>
      </trkpt>
      <trkpt lat="47.03494" lon="-0.83378">
        <ele>86</ele>
        <time>2022-03-08T10:18:53Z</time>
      </trkpt>
      <trkpt lat="47.03487" lon="-0.83358">
        <ele>86</ele>
        <time>2022-03-08T10:18:33Z</time>
      </trkpt>
      <trkpt lat="47.03478" lon="-0.83343">
        <ele>86</ele>
        <time>2022-03-08T10:18:15Z</time>
      </trkpt>
      <trkpt lat="47.03441" lon="-0.83322">
        <ele>87</ele>
        <time>2022-03-08T10:17:22Z</time>
      </trkpt>
      <trkpt lat="47.03437" lon="-0.83315">
        <ele>87</ele>
        <time>2022-03-08T10:17:13Z</time>
      </trkpt>
      <trkpt lat="47.03431" lon="-0.8328">
        <ele>86</ele>
        <time>2022-03-08T10:16:41Z</time>
      </trkpt>
      <trkpt lat="47.0343" lon="-0.83261">
        <ele>86</ele>
        <time>2022-03-08T10:16:23Z</time>
      </trkpt>
      <trkpt lat="47.03426" lon="-0.83242">
        <ele>86</ele>
        <time>2022-03-08T10:16:05Z</time>
      </trkpt>
      <trkpt lat="47.03418" lon="-0.83223">
        <ele>86</ele>
        <time>2022-03-08T10:15:45Z</time>
      </trkpt>
      <trkpt lat="47.03398" lon="-0.83186">
        <ele>86</ele>
        <time>2022-03-08T10:15:02Z</time>
      </trkpt>
      <trkpt lat="47.03374" lon="-0.83159">
        <ele>85</ele>
        <time>2022-03-08T10:14:22Z</time>
      </trkpt>
      <trkpt lat="47.03361" lon="-0.83146">
        <ele>86</ele>
        <time>2022-03-08T10:14:01Z</time>
      </trkpt>
      <trkpt lat="47.03345" lon="-0.83138">
        <ele>86</ele>
        <time>2022-03-08T10:13:38Z</time>
      </trkpt>
      <trkpt lat="47.03305" lon="-0.83128">
        <ele>87</ele>
        <time>2022-03-08T10:12:44Z</time>
      </trkpt>
      <trkpt lat="47.03288" lon="-0.83121">
        <ele>87</ele>
        <time>2022-03-08T10:12:20Z</time>
      </trkpt>
      <trkpt lat="47.03286" lon="-0.83117">
        <ele>87</ele>
        <time>2022-03-08T10:12:16Z</time>
      </trkpt>
      <trkpt lat="47.03287" lon="-0.83095">
        <ele>86</ele>
        <time>2022-03-08T10:11:56Z</time>
      </trkpt>
      <trkpt lat="47.03277" lon="-0.83074">
        <ele>86</ele>
        <time>2022-03-08T10:11:32Z</time>
      </trkpt>
      <trkpt lat="47.0324" lon="-0.83047">
        <ele>86</ele>
        <time>2022-03-08T10:10:37Z</time>
      </trkpt>
      <trkpt lat="47.03221" lon="-0.83036">
        <ele>87</ele>
        <time>2022-03-08T10:10:10Z</time>
      </trkpt>
      <trkpt lat="47.03171" lon="-0.83022">
        <ele>87</ele>
        <time>2022-03-08T10:09:02Z</time>
      </trkpt>
      <trkpt lat="47.0316" lon="-0.83015">
        <ele>88</ele>
        <time>2022-03-08T10:08:46Z</time>
      </trkpt>
      <trkpt lat="47.03124" lon="-0.83016">
        <ele>89</ele>
        <time>2022-03-08T10:07:58Z</time>
      </trkpt>
    </trkseg>
  </trk>
</gpx>